Flight Track Log - Related Links

Times and Time Zones

All times are in EDT time to prevent confusion due to time zone crossing. See the SAS1415 flight status page for this flight to view local times or setup timezone preferences in your user account.

Time Position Orientation Groundspeed Altitude Reporting Facility
EDT Latitude Longitude Course Direction KTS MPH feet Rate Location/Type
Tue 12:23:12 AM 59.6280 17.9510 190° South 145 167 800  Level FlightAware ADS-B
Tue 12:23:37 AM 59.6120 17.9470 187° South 145 167 1,900 1,964 Climbing FlightAware ADS-B
Tue 12:24:07 AM 59.5900 17.9720 150° Southeast 209 241 2,600 2,400 Climbing FlightAware ADS-B
Tue 12:24:37 AM 59.5660 18.0060 144° Southeast 206 237 4,300 3,300 Climbing FlightAware ADS-B
Tue 12:24:47 AM 59.5580 18.0100 166° South 195 224 4,800 2,700 Climbing FlightAware ADS-B
Tue 12:25:17 AM 59.5300 18.0040 186° South 210 242 6,100 3,200 Climbing FlightAware ADS-B
Tue 12:25:47 AM 59.5000 17.9970 187° South 222 255 8,000 3,333 Climbing FlightAware ADS-B
Tue 12:26:02 AM 59.4850 17.9840 204° Southwest 230 265 8,600 2,400 Climbing FlightAware ADS-B
Tue 12:26:12 AM 59.4780 17.9670 231° Southwest 240 276 9,000 2,880 Climbing FlightAware ADS-B
Tue 12:26:27 AM 59.4730 17.9370 252° West 250 288 9,800 2,800 Climbing FlightAware ADS-B
Tue 12:27:12 AM 59.4460 17.8390 242° Southwest 292 336 11,800 2,965 Climbing FlightAware ADS-B
Tue 12:27:52 AM 59.4090 17.7660 225° Southwest 303 349 14,000 3,525 Climbing FlightAware ADS-B
Tue 12:28:32 AM 59.3690 17.6870 225° Southwest 307 353 16,500 3,388 Climbing FlightAware ADS-B
Tue 12:29:17 AM 59.3230 17.5950 226° Southwest 318 366 18,800 3,035 Climbing FlightAware ADS-B
Tue 12:29:57 AM 59.2820 17.5130 226° Southwest 325 374 20,800 3,300 Climbing FlightAware ADS-B
Tue 12:30:37 AM 59.2400 17.4290 226° Southwest 318 366 23,200 3,106 Climbing FlightAware ADS-B
Tue 12:31:22 AM 59.1920 17.3360 225° Southwest 325 374 25,200 2,067 Climbing FlightAware ADS-B
Tue 12:32:07 AM 59.1430 17.2400 225° Southwest 347 399 26,300 1,553 Climbing FlightAware ADS-B
Tue 12:32:47 AM 59.0970 17.1490 225° Southwest 362 417 27,400 1,650 Climbing FlightAware ADS-B
Tue 12:33:27 AM 59.0470 17.0600 222° Southwest 376 433 28,500 1,694 Climbing FlightAware ADS-B
Tue 12:34:12 AM 58.9860 16.9560 221° Southwest 385 443 29,800 1,906 Climbing FlightAware ADS-B
Tue 12:34:52 AM 58.9330 16.8630 222° Southwest 385 443 31,200 1,765 Climbing FlightAware ADS-B
Tue 12:35:37 AM 58.8740 16.7620 222° Southwest 392 451 32,300 1,482 Climbing FlightAware ADS-B
Tue 12:36:17 AM 58.8200 16.6690 222° Southwest 397 457 33,300 1,425 Climbing FlightAware ADS-B
Tue 12:36:57 AM 58.7670 16.5790 221° Southwest 400 460 34,200 1,341 Climbing FlightAware ADS-B
Tue 12:37:42 AM 58.7050 16.4750 221° Southwest 403 464 35,200 1,129 Climbing FlightAware ADS-B
Tue 12:38:22 AM 58.6490 16.3800 221° Southwest 408 470 35,800 565 Climbing FlightAware ADS-B
Tue 12:39:07 AM 58.5800 16.2640 221° Southwest 411 473 36,000 141 Climbing FlightAware ADS-B
Tue 12:39:47 AM 58.5230 16.1700 221° Southwest 411 473 36,000  Level FlightAware ADS-B
Tue 12:40:27 AM 58.4660 16.0750 221° Southwest 411 473 36,000  Level FlightAware ADS-B
Tue 12:41:12 AM 58.4020 15.9700 221° Southwest 411 473 36,000  Level FlightAware ADS-B
Tue 12:41:52 AM 58.3450 15.8760 221° Southwest 412 474 36,000  Level FlightAware ADS-B
Tue 12:42:32 AM 58.2880 15.7810 221° Southwest 413 475 36,000  Level FlightAware ADS-B
Tue 12:43:17 AM 58.2210 15.6710 221° Southwest 413 475 36,000  Level FlightAware ADS-B
Tue 12:43:57 AM 58.1640 15.5790 220° Southwest 414 476 36,000  Level FlightAware ADS-B
Tue 12:44:42 AM 58.0980 15.4740 220° Southwest 413 475 36,000  Level FlightAware ADS-B
Tue 12:45:22 AM 58.0400 15.3800 221° Southwest 412 474 36,000  Level FlightAware ADS-B
Tue 12:46:02 AM 57.9820 15.2870 220° Southwest 413 475 36,000  Level FlightAware ADS-B
Tue 12:46:47 AM 57.9180 15.1850 220° Southwest 410 472 36,000  Level FlightAware ADS-B
Tue 12:47:27 AM 57.8610 15.0940 220° Southwest 408 470 36,000  Level FlightAware ADS-B
Tue 12:48:12 AM 57.7940 14.9890 220° Southwest 406 467 36,000  Level FlightAware ADS-B
Tue 12:48:52 AM 57.7360 14.8980 220° Southwest 405 466 36,000  Level FlightAware ADS-B
Tue 12:49:37 AM 57.6740 14.8000 220° Southwest 405 466 36,000  Level FlightAware ADS-B
Tue 12:50:17 AM 57.6170 14.7120 220° Southwest 405 466 36,000  Level FlightAware ADS-B
Tue 12:50:57 AM 57.5590 14.6210 220° Southwest 406 467 36,000  Level FlightAware ADS-B
Tue 12:51:42 AM 57.4930 14.5200 219° Southwest 407 468 36,000  Level FlightAware ADS-B
Tue 12:52:22 AM 57.4350 14.4310 220° Southwest 407 468 36,000  Level FlightAware ADS-B
Tue 12:53:07 AM 57.3710 14.3320 220° Southwest 408 470 36,000  Level FlightAware ADS-B
Tue 12:53:42 AM 57.3220 14.2580 219° Southwest 409 471 36,000  Level FlightAware ADS-B
Tue 12:54:27 AM 57.2550 14.1560 219° Southwest 412 474 36,000 -67 Level FlightAware ADS-B
Tue 12:55:12 AM 57.1870 14.0540 219° Southwest 409 471 35,900 -1,341 Descending FlightAware ADS-B
Tue 12:55:52 AM 57.1290 13.9650 220° Southwest 410 472 34,100 -2,471 Descending FlightAware ADS-B
Tue 12:56:37 AM 57.0640 13.8690 219° Southwest 404 465 32,400 -2,188 Descending FlightAware ADS-B
Tue 12:57:17 AM 57.0060 13.7840 219° Southwest 396 456 31,000 -2,025 Descending FlightAware ADS-B
Tue 12:57:57 AM 56.9510 13.7000 220° Southwest 383 441 29,700 -1,976 Descending FlightAware ADS-B
Tue 12:58:42 AM 56.8890 13.6100 218° Southwest 376 433 28,200 -1,976 Descending FlightAware ADS-B
Tue 12:59:22 AM 56.8350 13.5290 219° Southwest 382 440 26,900 -1,835 Descending FlightAware ADS-B
Tue 01:00:07 AM 56.7750 13.4420 218° Southwest 369 425 25,600 -1,835 Descending FlightAware ADS-B
Tue 01:00:47 AM 56.7230 13.3660 219° Southwest 355 409 24,300 -1,950 Descending FlightAware ADS-B
Tue 01:01:27 AM 56.6720 13.2920 219° Southwest 346 398 23,000 -1,976 Descending FlightAware ADS-B
Tue 01:02:12 AM 56.6160 13.2100 219° Southwest 340 391 21,500 -1,976 Descending FlightAware ADS-B
Tue 01:02:52 AM 56.5670 13.1400 218° Southwest 329 379 20,200 -1,906 Descending FlightAware ADS-B
Tue 01:03:37 AM 56.5150 13.0650 219° Southwest 323 372 18,800 -1,950 Descending FlightAware ADS-B
Tue 01:04:12 AM 56.4740 13.0060 218° Southwest 313 360 17,600 -1,950 Descending FlightAware ADS-B
Tue 01:04:57 AM 56.4240 12.9350 218° Southwest 307 353 16,200 -1,800 Descending FlightAware ADS-B
Tue 01:05:12 AM 56.4060 12.9190 206° Southwest 322 371 15,800 -1,900 Descending FlightAware ADS-B
Tue 01:05:57 AM 56.3390 12.8940 192° South 322 371 14,300 -1,950 Descending FlightAware ADS-B
Tue 01:06:32 AM 56.2870 12.8760 191° South 310 357 13,200 -2,100 Descending FlightAware ADS-B
Tue 01:07:17 AM 56.2250 12.8530 192° South 310 357 11,500 -1,867 Descending FlightAware ADS-B
Tue 01:08:02 AM 56.1630 12.8220 196° South 294 338 10,400 -988 Descending FlightAware ADS-B
Tue 01:08:42 AM 56.1140 12.7980 195° South 262 302 10,100 -600 Descending FlightAware ADS-B
Tue 01:09:12 AM 56.0800 12.7820 195° South 247 284 9,700 -667 Descending FlightAware ADS-B
Tue 01:09:27 AM 56.0650 12.7750 195° South 241 277 9,600 -514 Descending FlightAware ADS-B
Tue 01:09:47 AM 56.0440 12.7660 193° South 229 264 9,400 -600 Descending FlightAware ADS-B
Tue 01:10:07 AM 56.0240 12.7560 196° South 213 245 9,200 -514 Descending FlightAware ADS-B
Tue 01:10:22 AM 56.0110 12.7410 213° Southwest 200 230 9,100 -600 Descending FlightAware ADS-B
Tue 01:10:37 AM 56.0020 12.7300 214° Southwest 196 226 8,900 -900 Descending FlightAware ADS-B
Tue 01:11:02 AM 55.9830 12.7060 215° Southwest 193 222 8,500 -1,091 Descending FlightAware ADS-B
Tue 01:11:32 AM 55.9610 12.6790 214° Southwest 196 226 7,900 -1,067 Descending FlightAware ADS-B
Tue 01:11:47 AM 55.9490 12.6650 213° Southwest 196 226 7,700 -1,050 Descending FlightAware ADS-B
Tue 01:12:12 AM 55.9280 12.6500 202° Southwest 214 246 7,200 -1,200 Descending FlightAware ADS-B
Tue 01:12:42 AM 55.9020 12.6760 151° Southeast 249 287 6,600 -1,067 Descending FlightAware ADS-B
Tue 01:12:57 AM 55.8950 12.7040 114° Southeast 262 302 6,400 -900 Descending FlightAware ADS-B
Tue 01:13:02 AM 55.8940 12.7130 101° East 266 306 6,300 -960 Descending FlightAware ADS-B
Tue 01:13:22 AM 55.8960 12.7600 86° East 263 303 6,000 -720 Descending FlightAware ADS-B
Tue 01:13:52 AM 55.9000 12.8230 84° East 245 282 5,700 -533 Descending FlightAware ADS-B
Tue 01:14:07 AM 55.9020 12.8500 82° East 239 275 5,600 -600 Descending FlightAware ADS-B
Tue 01:14:32 AM 55.9050 12.8990 84° East 230 265 5,300 -600 Descending FlightAware ADS-B
Tue 01:14:47 AM 55.9020 12.9270 101° East 225 259 5,200 -533 Descending FlightAware ADS-B
Tue 01:15:17 AM 55.8880 12.9740 118° Southeast 215 247 4,900 -600 Descending FlightAware ADS-B
Tue 01:15:27 AM 55.8820 12.9870 129° Southeast 212 244 4,800 -480 Descending FlightAware ADS-B
Tue 01:15:42 AM 55.8690 13.0000 151° Southeast 192 221 4,700 -400 Descending FlightAware ADS-B
Tue 01:15:57 AM 55.8560 13.0000 180° South 176 203 4,600 -533 Descending FlightAware ADS-B
Tue 01:16:27 AM 55.8340 12.9880 197° South 155 178 4,300 -545 Descending FlightAware ADS-B
Tue 01:16:52 AM 55.8190 12.9700 214° Southwest 158 182 4,100 -436 Descending FlightAware ADS-B
Tue 01:17:22 AM 55.8020 12.9440 221° Southwest 155 178 3,900 -545 Descending FlightAware ADS-B
Tue 01:17:47 AM 55.7890 12.9230 222° Southwest 154 177 3,600 -545 Descending FlightAware ADS-B
Tue 01:18:17 AM 55.7730 12.8980 221° Southwest 151 174 3,400 -500 Descending FlightAware ADS-B
Tue 01:18:47 AM 55.7580 12.8730 223° Southwest 151 174 3,100 -450 Descending FlightAware ADS-B
Tue 01:18:57 AM 55.7520 12.8650 217° Southwest 151 174 3,100  Level FlightAware ADS-B
Tue 01:19:27 AM 55.7360 12.8400 221° Southwest 154 177 3,100 -327 Level FlightAware ADS-B
Tue 01:19:52 AM 55.7230 12.8190 222° Southwest 154 177 2,800 -764 Descending FlightAware ADS-B
Tue 01:20:22 AM 55.7070 12.7950 220° Southwest 135 155 2,400 -800 Descending FlightAware ADS-B
Tue 01:20:52 AM 55.6930 12.7730 222° Southwest 130 150 2,000 -800 Descending FlightAware ADS-B
Tue 01:21:07 AM 55.6860 12.7610 224° Southwest 131 151 1,800 -750 Descending FlightAware ADS-B
Tue 01:21:32 AM 55.6750 12.7440 221° Southwest 119 137 1,500 -750 Descending FlightAware ADS-B
Tue 01:21:47 AM 55.6690 12.7350 220° Southwest 112 129 1,300 -667 Descending FlightAware ADS-B
Tue 01:22:17 AM 55.6560 12.7150 221° Southwest 111 128 1,000 -600 Descending FlightAware ADS-B
Tue 01:22:27 AM 55.6520 12.7090 220° Southwest 113 130 900 -750 Descending FlightAware ADS-B
Tue 01:22:57 AM 55.6390 12.6890 221° Southwest 125 144 500 -655 Descending FlightAware ADS-B
Tue 01:23:22 AM 55.6280 12.6720 221° Southwest 119 137 300 -327 Descending FlightAware ADS-B
Tue 01:23:52 AM 55.6190 12.6560 225° Southwest 119 137 200 -200 Descending FlightAware ADS-B
Tue 01:26:00 AM 55.6179 12.6560 181° South  Level Estimated

Login

Don't have an account? Register now (free) for customized features, flight alerts, and more!